sensor_id;sensor_type;location;lat;lon;timestamp;P1;durP1;ratioP1;P2;durP2;ratioP2
40599;SDS011;26309;50.924;4.754;2023-08-24T00:01:10;12.75;;;6.70;;
40599;SDS011;26309;50.924;4.754;2023-08-24T00:03:45;13.07;;;6.32;;
40599;SDS011;26309;50.924;4.754;2023-08-24T00:06:12;13.18;;;6.38;;
40599;SDS011;26309;50.924;4.754;2023-08-24T00:08:38;9.68;;;6.60;;
40599;SDS011;26309;50.924;4.754;2023-08-24T00:11:04;10.82;;;6.00;;
40599;SDS011;26309;50.924;4.754;2023-08-24T00:13:31;8.65;;;5.60;;
40599;SDS011;26309;50.924;4.754;2023-08-24T00:15:57;11.65;;;6.13;;
40599;SDS011;26309;50.924;4.754;2023-08-24T00:18:24;11.30;;;6.40;;
40599;SDS011;26309;50.924;4.754;2023-08-24T00:20:50;9.18;;;6.95;;
40599;SDS011;26309;50.924;4.754;2023-08-24T00:23:16;9.20;;;6.13;;
40599;SDS011;26309;50.924;4.754;2023-08-24T00:25:43;10.40;;;6.70;;
40599;SDS011;26309;50.924;4.754;2023-08-24T00:28:09;11.18;;;6.70;;
40599;SDS011;26309;50.924;4.754;2023-08-24T00:30:36;10.38;;;5.47;;
40599;SDS011;26309;50.924;4.754;2023-08-24T00:33:02;7.72;;;5.63;;
40599;SDS011;26309;50.924;4.754;2023-08-24T00:35:28;10.57;;;6.10;;
40599;SDS011;26309;50.924;4.754;2023-08-24T00:37:54;8.88;;;6.07;;
40599;SDS011;26309;50.924;4.754;2023-08-24T00:40:20;6.57;;;5.90;;
40599;SDS011;26309;50.924;4.754;2023-08-24T00:42:46;9.02;;;6.32;;
40599;SDS011;26309;50.924;4.754;2023-08-24T00:45:12;8.20;;;6.07;;
40599;SDS011;26309;50.924;4.754;2023-08-24T00:47:39;11.65;;;5.97;;
40599;SDS011;26309;50.924;4.754;2023-08-24T00:50:11;8.88;;;5.82;;
40599;SDS011;26309;50.924;4.754;2023-08-24T00:52:40;13.45;;;6.72;;
40599;SDS011;26309;50.924;4.754;2023-08-24T00:55:08;16.48;;;8.23;;
40599;SDS011;26309;50.924;4.754;2023-08-24T00:57:35;13.63;;;8.10;;
40599;SDS011;26309;50.924;4.754;2023-08-24T01:00:04;12.95;;;7.70;;
40599;SDS011;26309;50.924;4.754;2023-08-24T01:02:31;10.90;;;6.50;;
40599;SDS011;26309;50.924;4.754;2023-08-24T01:05:00;11.45;;;6.45;;
40599;SDS011;26309;50.924;4.754;2023-08-24T01:07:26;14.00;;;7.10;;
40599;SDS011;26309;50.924;4.754;2023-08-24T01:09:53;13.50;;;7.63;;
40599;SDS011;26309;50.924;4.754;2023-08-24T01:12:28;11.80;;;8.90;;
40599;SDS011;26309;50.924;4.754;2023-08-24T01:17:25;13.35;;;7.18;;
40599;SDS011;26309;50.924;4.754;2023-08-24T01:19:54;12.40;;;8.18;;
40599;SDS011;26309;50.924;4.754;2023-08-24T01:24:54;10.30;;;8.18;;
40599;SDS011;26309;50.924;4.754;2023-08-24T01:27:31;12.20;;;7.45;;
40599;SDS011;26309;50.924;4.754;2023-08-24T01:30:00;10.20;;;7.15;;
40599;SDS011;26309;50.924;4.754;2023-08-24T01:32:32;11.57;;;7.28;;
40599;SDS011;26309;50.924;4.754;2023-08-24T01:35:00;9.48;;;6.50;;
40599;SDS011;26309;50.924;4.754;2023-08-24T01:37:28;13.25;;;7.47;;
40599;SDS011;26309;50.924;4.754;2023-08-24T01:39:57;11.55;;;7.53;;
40599;SDS011;26309;50.924;4.754;2023-08-24T01:42:35;11.57;;;7.18;;
40599;SDS011;26309;50.924;4.754;2023-08-24T01:45:09;8.70;;;6.88;;
40599;SDS011;26309;50.924;4.754;2023-08-24T01:47:39;9.23;;;6.10;;
40599;SDS011;26309;50.924;4.754;2023-08-24T01:50:07;12.13;;;7.25;;
40599;SDS011;26309;50.924;4.754;2023-08-24T01:52:33;10.73;;;7.88;;
40599;SDS011;26309;50.924;4.754;2023-08-24T01:55:00;16.50;;;8.23;;
40599;SDS011;26309;50.924;4.754;2023-08-24T01:57:26;11.93;;;8.68;;
40599;SDS011;26309;50.924;4.754;2023-08-24T01:59:52;11.82;;;9.30;;
40599;SDS011;26309;50.924;4.754;2023-08-24T02:02:18;16.52;;;10.02;;
40599;SDS011;26309;50.924;4.754;2023-08-24T02:04:46;14.23;;;8.98;;
40599;SDS011;26309;50.924;4.754;2023-08-24T02:07:12;13.82;;;10.38;;
40599;SDS011;26309;50.924;4.754;2023-08-24T02:09:38;16.63;;;9.13;;
40599;SDS011;26309;50.924;4.754;2023-08-24T02:12:04;12.05;;;9.20;;
40599;SDS011;26309;50.924;4.754;2023-08-24T02:14:30;11.02;;;8.77;;
40599;SDS011;26309;50.924;4.754;2023-08-24T02:16:56;14.40;;;8.73;;
40599;SDS011;26309;50.924;4.754;2023-08-24T02:19:22;12.77;;;9.88;;
40599;SDS011;26309;50.924;4.754;2023-08-24T02:21:48;18.83;;;9.95;;
40599;SDS011;26309;50.924;4.754;2023-08-24T02:24:13;14.73;;;10.23;;
40599;SDS011;26309;50.924;4.754;2023-08-24T02:26:39;19.83;;;12.05;;
40599;SDS011;26309;50.924;4.754;2023-08-24T02:29:05;18.05;;;11.23;;
40599;SDS011;26309;50.924;4.754;2023-08-24T02:31:31;15.63;;;12.95;;
40599;SDS011;26309;50.924;4.754;2023-08-24T02:33:57;19.08;;;12.85;;
40599;SDS011;26309;50.924;4.754;2023-08-24T02:36:23;17.63;;;13.45;;
40599;SDS011;26309;50.924;4.754;2023-08-24T02:38:49;16.98;;;13.75;;
40599;SDS011;26309;50.924;4.754;2023-08-24T02:41:15;21.90;;;15.60;;
40599;SDS011;26309;50.924;4.754;2023-08-24T02:43:41;22.83;;;16.67;;
40599;SDS011;26309;50.924;4.754;2023-08-24T02:46:08;21.92;;;17.05;;
40599;SDS011;26309;50.924;4.754;2023-08-24T02:48:37;22.45;;;15.98;;
40599;SDS011;26309;50.924;4.754;2023-08-24T02:51:04;20.35;;;15.55;;
40599;SDS011;26309;50.924;4.754;2023-08-24T02:53:30;18.05;;;13.57;;
40599;SDS011;26309;50.924;4.754;2023-08-24T02:55:56;17.30;;;12.88;;
40599;SDS011;26309;50.924;4.754;2023-08-24T02:58:23;18.25;;;12.95;;
40599;SDS011;26309;50.924;4.754;2023-08-24T03:00:49;20.58;;;12.18;;
40599;SDS011;26309;50.924;4.754;2023-08-24T03:03:15;16.00;;;12.02;;
40599;SDS011;26309;50.924;4.754;2023-08-24T03:06:01;19.90;;;13.05;;
40599;SDS011;26309;50.924;4.754;2023-08-24T03:08:29;17.48;;;13.07;;
40599;SDS011;26309;50.924;4.754;2023-08-24T03:10:55;20.25;;;13.32;;
40599;SDS011;26309;50.924;4.754;2023-08-24T03:13:22;17.25;;;13.55;;
40599;SDS011;26309;50.924;4.754;2023-08-24T03:15:48;21.33;;;12.88;;
40599;SDS011;26309;50.924;4.754;2023-08-24T03:18:15;20.45;;;13.23;;
40599;SDS011;26309;50.924;4.754;2023-08-24T03:20:43;19.20;;;13.45;;
40599;SDS011;26309;50.924;4.754;2023-08-24T03:23:10;18.35;;;13.98;;
40599;SDS011;26309;50.924;4.754;2023-08-24T03:25:37;16.83;;;14.27;;
40599;SDS011;26309;50.924;4.754;2023-08-24T03:28:05;17.60;;;12.82;;
40599;SDS011;26309;50.924;4.754;2023-08-24T03:30:33;17.13;;;12.93;;
40599;SDS011;26309;50.924;4.754;2023-08-24T03:33:00;16.48;;;13.45;;
40599;SDS011;26309;50.924;4.754;2023-08-24T03:35:27;14.60;;;12.95;;
40599;SDS011;26309;50.924;4.754;2023-08-24T03:37:54;21.08;;;13.85;;
40599;SDS011;26309;50.924;4.754;2023-08-24T03:40:19;21.75;;;13.45;;
40599;SDS011;26309;50.924;4.754;2023-08-24T03:42:45;16.80;;;12.85;;
40599;SDS011;26309;50.924;4.754;2023-08-24T03:45:11;18.40;;;13.48;;
40599;SDS011;26309;50.924;4.754;2023-08-24T03:47:37;19.33;;;14.15;;
40599;SDS011;26309;50.924;4.754;2023-08-24T03:50:03;21.92;;;13.73;;
40599;SDS011;26309;50.924;4.754;2023-08-24T03:52:29;15.93;;;13.82;;
40599;SDS011;26309;50.924;4.754;2023-08-24T03:54:56;20.80;;;14.35;;
40599;SDS011;26309;50.924;4.754;2023-08-24T03:57:22;20.38;;;14.68;;
40599;SDS011;26309;50.924;4.754;2023-08-24T03:59:48;19.70;;;15.00;;
40599;SDS011;26309;50.924;4.754;2023-08-24T04:02:14;20.98;;;16.38;;
40599;SDS011;26309;50.924;4.754;2023-08-24T04:04:40;27.35;;;16.83;;
40599;SDS011;26309;50.924;4.754;2023-08-24T04:07:06;22.35;;;16.55;;
40599;SDS011;26309;50.924;4.754;2023-08-24T04:09:33;21.20;;;16.13;;
40599;SDS011;26309;50.924;4.754;2023-08-24T04:11:59;22.23;;;16.35;;
40599;SDS011;26309;50.924;4.754;2023-08-24T04:14:25;26.63;;;18.52;;
40599;SDS011;26309;50.924;4.754;2023-08-24T04:16:51;22.35;;;17.85;;
40599;SDS011;26309;50.924;4.754;2023-08-24T04:19:18;22.70;;;17.92;;
40599;SDS011;26309;50.924;4.754;2023-08-24T04:21:44;23.95;;;16.95;;
40599;SDS011;26309;50.924;4.754;2023-08-24T04:24:10;25.48;;;17.95;;
40599;SDS011;26309;50.924;4.754;2023-08-24T04:26:36;24.33;;;18.48;;
40599;SDS011;26309;50.924;4.754;2023-08-24T04:29:02;25.80;;;17.85;;
40599;SDS011;26309;50.924;4.754;2023-08-24T04:31:27;25.45;;;18.13;;
40599;SDS011;26309;50.924;4.754;2023-08-24T04:33:53;25.15;;;19.58;;
40599;SDS011;26309;50.924;4.754;2023-08-24T04:36:19;25.40;;;18.50;;
40599;SDS011;26309;50.924;4.754;2023-08-24T04:38:45;22.65;;;18.95;;
40599;SDS011;26309;50.924;4.754;2023-08-24T04:41:11;26.75;;;19.58;;
40599;SDS011;26309;50.924;4.754;2023-08-24T04:43:37;22.23;;;18.23;;
40599;SDS011;26309;50.924;4.754;2023-08-24T04:46:03;24.77;;;16.92;;
40599;SDS011;26309;50.924;4.754;2023-08-24T04:48:29;24.25;;;18.33;;
40599;SDS011;26309;50.924;4.754;2023-08-24T04:50:58;30.38;;;19.33;;
40599;SDS011;26309;50.924;4.754;2023-08-24T04:53:25;25.48;;;19.75;;
40599;SDS011;26309;50.924;4.754;2023-08-24T04:55:51;22.98;;;20.05;;
40599;SDS011;26309;50.924;4.754;2023-08-24T04:58:18;23.42;;;19.77;;
40599;SDS011;26309;50.924;4.754;2023-08-24T05:00:44;22.77;;;19.08;;
40599;SDS011;26309;50.924;4.754;2023-08-24T05:03:10;24.63;;;18.42;;
40599;SDS011;26309;50.924;4.754;2023-08-24T05:05:36;21.80;;;17.80;;
40599;SDS011;26309;50.924;4.754;2023-08-24T05:08:03;23.13;;;18.23;;
40599;SDS011;26309;50.924;4.754;2023-08-24T05:10:36;22.08;;;17.40;;
40599;SDS011;26309;50.924;4.754;2023-08-24T05:13:03;24.63;;;17.02;;
40599;SDS011;26309;50.924;4.754;2023-08-24T05:15:29;21.63;;;18.33;;
40599;SDS011;26309;50.924;4.754;2023-08-24T05:17:55;22.60;;;20.20;;
40599;SDS011;26309;50.924;4.754;2023-08-24T05:20:25;21.70;;;18.70;;
40599;SDS011;26309;50.924;4.754;2023-08-24T05:22:52;20.48;;;16.92;;
40599;SDS011;26309;50.924;4.754;2023-08-24T05:25:20;21.27;;;18.00;;
40599;SDS011;26309;50.924;4.754;2023-08-24T05:27:47;25.17;;;18.15;;
40599;SDS011;26309;50.924;4.754;2023-08-24T05:30:13;19.77;;;15.70;;
40599;SDS011;26309;50.924;4.754;2023-08-24T05:32:39;18.83;;;15.52;;
40599;SDS011;26309;50.924;4.754;2023-08-24T05:35:08;21.13;;;16.63;;
40599;SDS011;26309;50.924;4.754;2023-08-24T05:37:34;20.42;;;16.50;;
40599;SDS011;26309;50.924;4.754;2023-08-24T05:40:01;24.90;;;16.00;;
40599;SDS011;26309;50.924;4.754;2023-08-24T05:42:27;19.02;;;15.38;;
40599;SDS011;26309;50.924;4.754;2023-08-24T05:44:53;20.58;;;15.55;;
40599;SDS011;26309;50.924;4.754;2023-08-24T05:47:19;21.63;;;15.77;;
40599;SDS011;26309;50.924;4.754;2023-08-24T05:49:45;20.70;;;16.00;;
40599;SDS011;26309;50.924;4.754;2023-08-24T05:52:11;20.60;;;16.23;;
40599;SDS011;26309;50.924;4.754;2023-08-24T05:54:37;16.77;;;14.80;;
40599;SDS011;26309;50.924;4.754;2023-08-24T05:57:04;21.80;;;15.98;;
40599;SDS011;26309;50.924;4.754;2023-08-24T05:59:30;18.73;;;15.02;;
40599;SDS011;26309;50.924;4.754;2023-08-24T06:01:57;16.83;;;14.13;;
40599;SDS011;26309;50.924;4.754;2023-08-24T06:04:24;21.33;;;13.90;;
40599;SDS011;26309;50.924;4.754;2023-08-24T06:06:50;18.95;;;13.23;;
40599;SDS011;26309;50.924;4.754;2023-08-24T06:09:18;15.68;;;12.38;;
40599;SDS011;26309;50.924;4.754;2023-08-24T06:11:44;17.42;;;12.10;;
40599;SDS011;26309;50.924;4.754;2023-08-24T06:14:10;14.38;;;11.80;;
40599;SDS011;26309;50.924;4.754;2023-08-24T06:16:36;18.45;;;11.80;;
40599;SDS011;26309;50.924;4.754;2023-08-24T06:19:02;16.15;;;11.32;;
40599;SDS011;26309;50.924;4.754;2023-08-24T06:21:31;18.55;;;11.98;;
40599;SDS011;26309;50.924;4.754;2023-08-24T06:24:03;19.88;;;11.40;;
40599;SDS011;26309;50.924;4.754;2023-08-24T06:26:31;18.05;;;11.30;;
40599;SDS011;26309;50.924;4.754;2023-08-24T06:28:57;17.75;;;11.18;;
40599;SDS011;26309;50.924;4.754;2023-08-24T06:31:23;16.40;;;10.02;;
40599;SDS011;26309;50.924;4.754;2023-08-24T06:33:49;15.30;;;9.88;;
40599;SDS011;26309;50.924;4.754;2023-08-24T06:36:16;14.90;;;9.82;;
40599;SDS011;26309;50.924;4.754;2023-08-24T06:38:42;16.52;;;10.18;;
40599;SDS011;26309;50.924;4.754;2023-08-24T06:41:08;13.48;;;9.68;;
40599;SDS011;26309;50.924;4.754;2023-08-24T06:43:37;17.63;;;10.27;;
40599;SDS011;26309;50.924;4.754;2023-08-24T06:46:06;15.57;;;10.02;;
40599;SDS011;26309;50.924;4.754;2023-08-24T06:48:34;16.08;;;9.30;;
40599;SDS011;26309;50.924;4.754;2023-08-24T06:51:09;13.68;;;9.25;;
40599;SDS011;26309;50.924;4.754;2023-08-24T06:53:35;13.40;;;8.93;;
40599;SDS011;26309;50.924;4.754;2023-08-24T06:56:01;11.07;;;8.93;;
40599;SDS011;26309;50.924;4.754;2023-08-24T06:58:27;15.40;;;9.68;;
40599;SDS011;26309;50.924;4.754;2023-08-24T07:00:53;14.77;;;9.60;;
40599;SDS011;26309;50.924;4.754;2023-08-24T07:03:20;13.40;;;9.40;;
40599;SDS011;26309;50.924;4.754;2023-08-24T07:05:50;18.80;;;9.57;;
40599;SDS011;26309;50.924;4.754;2023-08-24T07:08:18;12.77;;;9.32;;
40599;SDS011;26309;50.924;4.754;2023-08-24T07:10:45;12.10;;;8.60;;
40599;SDS011;26309;50.924;4.754;2023-08-24T07:13:14;11.75;;;9.68;;
40599;SDS011;26309;50.924;4.754;2023-08-24T07:15:41;13.40;;;9.30;;
40599;SDS011;26309;50.924;4.754;2023-08-24T07:18:10;11.93;;;8.50;;
40599;SDS011;26309;50.924;4.754;2023-08-24T07:20:37;15.95;;;9.55;;
40599;SDS011;26309;50.924;4.754;2023-08-24T07:23:03;14.70;;;9.10;;
40599;SDS011;26309;50.924;4.754;2023-08-24T07:25:29;15.65;;;9.23;;
40599;SDS011;26309;50.924;4.754;2023-08-24T07:27:56;10.68;;;8.38;;
40599;SDS011;26309;50.924;4.754;2023-08-24T07:30:28;15.07;;;8.30;;
40599;SDS011;26309;50.924;4.754;2023-08-24T07:32:54;10.55;;;8.43;;
40599;SDS011;26309;50.924;4.754;2023-08-24T07:35:20;16.25;;;8.65;;
40599;SDS011;26309;50.924;4.754;2023-08-24T07:37:49;11.18;;;8.65;;
40599;SDS011;26309;50.924;4.754;2023-08-24T07:40:16;10.63;;;7.60;;
40599;SDS011;26309;50.924;4.754;2023-08-24T07:42:45;14.48;;;8.27;;
40599;SDS011;26309;50.924;4.754;2023-08-24T07:45:13;10.88;;;8.00;;
40599;SDS011;26309;50.924;4.754;2023-08-24T07:47:39;13.07;;;8.48;;
40599;SDS011;26309;50.924;4.754;2023-08-24T07:50:06;11.30;;;8.45;;
40599;SDS011;26309;50.924;4.754;2023-08-24T07:52:32;13.38;;;7.93;;
40599;SDS011;26309;50.924;4.754;2023-08-24T07:54:58;9.80;;;7.40;;
40599;SDS011;26309;50.924;4.754;2023-08-24T07:57:25;12.75;;;7.90;;
40599;SDS011;26309;50.924;4.754;2023-08-24T07:59:54;16.33;;;8.30;;
40599;SDS011;26309;50.924;4.754;2023-08-24T08:02:20;14.82;;;7.22;;
40599;SDS011;26309;50.924;4.754;2023-08-24T08:04:46;15.63;;;8.20;;
40599;SDS011;26309;50.924;4.754;2023-08-24T08:07:12;15.55;;;7.90;;
40599;SDS011;26309;50.924;4.754;2023-08-24T08:09:37;13.75;;;8.43;;
40599;SDS011;26309;50.924;4.754;2023-08-24T08:12:04;10.45;;;7.80;;
40599;SDS011;26309;50.924;4.754;2023-08-24T08:14:31;9.48;;;6.90;;
40599;SDS011;26309;50.924;4.754;2023-08-24T08:16:57;14.43;;;7.38;;
40599;SDS011;26309;50.924;4.754;2023-08-24T08:19:23;11.32;;;7.63;;
40599;SDS011;26309;50.924;4.754;2023-08-24T08:21:51;11.48;;;6.82;;
40599;SDS011;26309;50.924;4.754;2023-08-24T08:24:17;14.20;;;7.20;;
40599;SDS011;26309;50.924;4.754;2023-08-24T08:26:43;9.30;;;6.70;;
40599;SDS011;26309;50.924;4.754;2023-08-24T08:29:09;14.77;;;7.88;;
40599;SDS011;26309;50.924;4.754;2023-08-24T08:31:36;13.43;;;8.00;;
40599;SDS011;26309;50.924;4.754;2023-08-24T08:34:02;9.82;;;7.40;;
40599;SDS011;26309;50.924;4.754;2023-08-24T08:36:32;12.55;;;7.80;;
40599;SDS011;26309;50.924;4.754;2023-08-24T08:38:58;16.10;;;8.30;;
40599;SDS011;26309;50.924;4.754;2023-08-24T08:41:25;15.18;;;7.80;;
40599;SDS011;26309;50.924;4.754;2023-08-24T08:43:55;10.90;;;7.57;;
40599;SDS011;26309;50.924;4.754;2023-08-24T08:46:22;9.07;;;6.95;;
40599;SDS011;26309;50.924;4.754;2023-08-24T08:48:48;9.90;;;6.95;;
40599;SDS011;26309;50.924;4.754;2023-08-24T08:51:17;8.15;;;6.25;;
40599;SDS011;26309;50.924;4.754;2023-08-24T08:53:44;11.13;;;7.50;;
40599;SDS011;26309;50.924;4.754;2023-08-24T08:56:10;9.68;;;6.75;;
40599;SDS011;26309;50.924;4.754;2023-08-24T08:58:36;11.32;;;7.13;;
40599;SDS011;26309;50.924;4.754;2023-08-24T09:01:03;10.85;;;6.78;;
40599;SDS011;26309;50.924;4.754;2023-08-24T09:03:31;11.80;;;6.07;;
40599;SDS011;26309;50.924;4.754;2023-08-24T09:06:06;11.02;;;5.97;;
40599;SDS011;26309;50.924;4.754;2023-08-24T09:08:34;8.85;;;5.72;;
40599;SDS011;26309;50.924;4.754;2023-08-24T09:11:02;6.82;;;4.97;;
40599;SDS011;26309;50.924;4.754;2023-08-24T09:13:29;10.02;;;5.25;;
40599;SDS011;26309;50.924;4.754;2023-08-24T09:16:02;7.88;;;5.32;;
40599;SDS011;26309;50.924;4.754;2023-08-24T09:18:37;9.00;;;5.20;;
40599;SDS011;26309;50.924;4.754;2023-08-24T09:21:09;12.55;;;5.72;;
40599;SDS011;26309;50.924;4.754;2023-08-24T09:23:56;10.55;;;5.85;;
40599;SDS011;26309;50.924;4.754;2023-08-24T09:26:36;8.77;;;5.32;;
40599;SDS011;26309;50.924;4.754;2023-08-24T09:29:14;9.25;;;5.47;;
40599;SDS011;26309;50.924;4.754;2023-08-24T09:31:43;9.48;;;5.30;;
40599;SDS011;26309;50.924;4.754;2023-08-24T09:34:10;7.43;;;4.32;;
40599;SDS011;26309;50.924;4.754;2023-08-24T09:36:38;6.53;;;4.57;;
40599;SDS011;26309;50.924;4.754;2023-08-24T09:39:06;6.72;;;4.22;;
40599;SDS011;26309;50.924;4.754;2023-08-24T09:42:01;6.78;;;4.60;;
40599;SDS011;26309;50.924;4.754;2023-08-24T09:44:28;10.80;;;4.43;;
40599;SDS011;26309;50.924;4.754;2023-08-24T09:47:01;7.15;;;5.03;;
40599;SDS011;26309;50.924;4.754;2023-08-24T09:49:44;10.23;;;4.88;;
40599;SDS011;26309;50.924;4.754;2023-08-24T09:52:16;6.72;;;4.25;;
40599;SDS011;26309;50.924;4.754;2023-08-24T09:54:44;9.00;;;4.45;;
40599;SDS011;26309;50.924;4.754;2023-08-24T09:57:13;10.82;;;4.88;;
40599;SDS011;26309;50.924;4.754;2023-08-24T09:59:40;8.20;;;4.60;;
40599;SDS011;26309;50.924;4.754;2023-08-24T10:02:14;9.40;;;5.10;;
40599;SDS011;26309;50.924;4.754;2023-08-24T10:04:45;9.88;;;5.70;;
40599;SDS011;26309;50.924;4.754;2023-08-24T10:07:19;6.53;;;4.75;;
40599;SDS011;26309;50.924;4.754;2023-08-24T10:09:57;12.23;;;5.88;;
40599;SDS011;26309;50.924;4.754;2023-08-24T10:12:38;12.57;;;6.10;;
40599;SDS011;26309;50.924;4.754;2023-08-24T10:15:15;10.68;;;5.93;;
40599;SDS011;26309;50.924;4.754;2023-08-24T10:17:57;10.20;;;5.93;;
40599;SDS011;26309;50.924;4.754;2023-08-24T10:20:28;7.80;;;5.47;;
40599;SDS011;26309;50.924;4.754;2023-08-24T10:23:07;12.38;;;7.13;;
40599;SDS011;26309;50.924;4.754;2023-08-24T10:25:49;10.35;;;6.80;;
40599;SDS011;26309;50.924;4.754;2023-08-24T10:28:46;9.80;;;6.68;;
40599;SDS011;26309;50.924;4.754;2023-08-24T10:31:40;12.45;;;7.45;;
40599;SDS011;26309;50.924;4.754;2023-08-24T10:35:01;17.05;;;7.72;;
40599;SDS011;26309;50.924;4.754;2023-08-24T10:37:32;14.57;;;7.32;;
40599;SDS011;26309;50.924;4.754;2023-08-24T10:40:03;13.82;;;7.72;;
40599;SDS011;26309;50.924;4.754;2023-08-24T10:42:48;11.27;;;7.65;;
40599;SDS011;26309;50.924;4.754;2023-08-24T10:45:53;10.90;;;7.55;;
40599;SDS011;26309;50.924;4.754;2023-08-24T10:48:31;12.23;;;8.05;;
40599;SDS011;26309;50.924;4.754;2023-08-24T10:51:23;15.38;;;7.97;;
40599;SDS011;26309;50.924;4.754;2023-08-24T10:54:03;13.75;;;7.47;;
40599;SDS011;26309;50.924;4.754;2023-08-24T10:56:42;11.77;;;8.02;;
40599;SDS011;26309;50.924;4.754;2023-08-24T10:59:22;12.80;;;7.65;;
40599;SDS011;26309;50.924;4.754;2023-08-24T11:01:57;12.50;;;7.57;;
40599;SDS011;26309;50.924;4.754;2023-08-24T11:04:24;13.02;;;6.70;;
40599;SDS011;26309;50.924;4.754;2023-08-24T11:06:51;13.75;;;7.07;;
40599;SDS011;26309;50.924;4.754;2023-08-24T11:09:44;11.27;;;6.85;;
40599;SDS011;26309;50.924;4.754;2023-08-24T11:12:14;12.13;;;6.80;;
40599;SDS011;26309;50.924;4.754;2023-08-24T11:14:50;10.18;;;6.70;;
40599;SDS011;26309;50.924;4.754;2023-08-24T11:17:24;7.78;;;6.70;;
40599;SDS011;26309;50.924;4.754;2023-08-24T11:19:58;11.02;;;6.70;;
40599;SDS011;26309;50.924;4.754;2023-08-24T11:22:29;9.88;;;6.65;;
40599;SDS011;26309;50.924;4.754;2023-08-24T11:24:57;12.45;;;6.75;;
40599;SDS011;26309;50.924;4.754;2023-08-24T11:27:24;14.40;;;6.53;;
40599;SDS011;26309;50.924;4.754;2023-08-24T11:29:58;7.72;;;6.20;;
40599;SDS011;26309;50.924;4.754;2023-08-24T11:32:25;11.50;;;6.28;;
40599;SDS011;26309;50.924;4.754;2023-08-24T11:34:52;11.07;;;6.82;;
40599;SDS011;26309;50.924;4.754;2023-08-24T11:37:23;14.23;;;8.50;;
40599;SDS011;26309;50.924;4.754;2023-08-24T11:39:51;7.60;;;6.35;;
40599;SDS011;26309;50.924;4.754;2023-08-24T11:42:17;11.15;;;6.30;;
40599;SDS011;26309;50.924;4.754;2023-08-24T11:44:47;9.80;;;6.40;;
40599;SDS011;26309;50.924;4.754;2023-08-24T11:47:13;8.52;;;6.32;;
40599;SDS011;26309;50.924;4.754;2023-08-24T11:49:40;10.32;;;6.53;;
40599;SDS011;26309;50.924;4.754;2023-08-24T11:52:06;9.32;;;6.35;;
40599;SDS011;26309;50.924;4.754;2023-08-24T11:54:33;8.70;;;6.15;;
40599;SDS011;26309;50.924;4.754;2023-08-24T11:57:07;8.57;;;6.60;;
40599;SDS011;26309;50.924;4.754;2023-08-24T11:59:41;9.77;;;6.15;;
40599;SDS011;26309;50.924;4.754;2023-08-24T12:02:09;8.00;;;6.38;;
40599;SDS011;26309;50.924;4.754;2023-08-24T12:04:41;8.77;;;6.30;;
40599;SDS011;26309;50.924;4.754;2023-08-24T12:07:10;9.95;;;6.05;;
40599;SDS011;26309;50.924;4.754;2023-08-24T12:09:38;10.27;;;5.65;;
40599;SDS011;26309;50.924;4.754;2023-08-24T12:12:11;9.77;;;6.22;;
40599;SDS011;26309;50.924;4.754;2023-08-24T12:14:45;13.73;;;6.05;;
40599;SDS011;26309;50.924;4.754;2023-08-24T12:17:18;8.25;;;5.60;;
40599;SDS011;26309;50.924;4.754;2023-08-24T12:19:56;10.60;;;5.70;;
40599;SDS011;26309;50.924;4.754;2023-08-24T12:22:26;8.63;;;6.65;;
40599;SDS011;26309;50.924;4.754;2023-08-24T12:24:53;10.13;;;6.55;;
40599;SDS011;26309;50.924;4.754;2023-08-24T12:27:22;8.25;;;6.15;;
40599;SDS011;26309;50.924;4.754;2023-08-24T12:29:54;8.43;;;5.93;;
40599;SDS011;26309;50.924;4.754;2023-08-24T12:32:20;7.78;;;6.22;;
40599;SDS011;26309;50.924;4.754;2023-08-24T12:34:51;10.40;;;6.68;;
40599;SDS011;26309;50.924;4.754;2023-08-24T12:37:22;9.02;;;6.57;;
40599;SDS011;26309;50.924;4.754;2023-08-24T12:39:50;9.48;;;6.63;;
40599;SDS011;26309;50.924;4.754;2023-08-24T12:42:16;7.35;;;6.32;;
40599;SDS011;26309;50.924;4.754;2023-08-24T12:44:42;9.40;;;6.93;;
40599;SDS011;26309;50.924;4.754;2023-08-24T12:47:08;9.15;;;6.45;;
40599;SDS011;26309;50.924;4.754;2023-08-24T12:49:34;7.45;;;6.25;;
40599;SDS011;26309;50.924;4.754;2023-08-24T12:52:00;8.73;;;6.63;;
40599;SDS011;26309;50.924;4.754;2023-08-24T12:54:28;8.73;;;6.60;;
40599;SDS011;26309;50.924;4.754;2023-08-24T12:57:02;7.45;;;6.13;;
40599;SDS011;26309;50.924;4.754;2023-08-24T12:59:28;8.40;;;6.63;;
40599;SDS011;26309;50.924;4.754;2023-08-24T13:01:53;10.68;;;5.93;;
40599;SDS011;26309;50.924;4.754;2023-08-24T13:04:19;9.32;;;6.45;;
40599;SDS011;26309;50.924;4.754;2023-08-24T13:06:46;8.95;;;5.20;;
40599;SDS011;26309;50.924;4.754;2023-08-24T13:09:12;8.98;;;5.60;;
40599;SDS011;26309;50.924;4.754;2023-08-24T13:11:39;10.82;;;5.10;;
40599;SDS011;26309;50.924;4.754;2023-08-24T13:14:04;6.80;;;4.47;;
40599;SDS011;26309;50.924;4.754;2023-08-24T13:16:30;8.40;;;4.88;;
40599;SDS011;26309;50.924;4.754;2023-08-24T13:18:56;8.10;;;5.00;;
40599;SDS011;26309;50.924;4.754;2023-08-24T13:21:24;6.03;;;4.55;;
40599;SDS011;26309;50.924;4.754;2023-08-24T13:23:51;7.00;;;4.18;;
40599;SDS011;26309;50.924;4.754;2023-08-24T13:26:20;9.70;;;4.55;;
40599;SDS011;26309;50.924;4.754;2023-08-24T13:28:48;10.02;;;3.70;;
40599;SDS011;26309;50.924;4.754;2023-08-24T13:31:14;6.93;;;3.60;;
40599;SDS011;26309;50.924;4.754;2023-08-24T13:33:41;7.35;;;3.58;;
40599;SDS011;26309;50.924;4.754;2023-08-24T13:36:07;8.80;;;3.70;;
40599;SDS011;26309;50.924;4.754;2023-08-24T13:38:33;6.47;;;3.80;;
40599;SDS011;26309;50.924;4.754;2023-08-24T13:41:00;6.38;;;3.20;;
40599;SDS011;26309;50.924;4.754;2023-08-24T13:43:25;5.63;;;3.60;;
40599;SDS011;26309;50.924;4.754;2023-08-24T13:45:54;5.15;;;3.45;;
40599;SDS011;26309;50.924;4.754;2023-08-24T13:48:20;5.40;;;3.58;;
40599;SDS011;26309;50.924;4.754;2023-08-24T13:50:50;8.07;;;3.75;;
40599;SDS011;26309;50.924;4.754;2023-08-24T13:53:19;5.10;;;3.00;;
40599;SDS011;26309;50.924;4.754;2023-08-24T13:55:45;12.32;;;3.65;;
40599;SDS011;26309;50.924;4.754;2023-08-24T13:58:11;6.18;;;2.72;;
40599;SDS011;26309;50.924;4.754;2023-08-24T14:00:37;6.57;;;2.83;;
40599;SDS011;26309;50.924;4.754;2023-08-24T14:03:04;6.35;;;3.03;;
40599;SDS011;26309;50.924;4.754;2023-08-24T14:05:30;7.93;;;2.60;;
40599;SDS011;26309;50.924;4.754;2023-08-24T14:07:56;5.55;;;3.25;;
40599;SDS011;26309;50.924;4.754;2023-08-24T14:10:22;7.28;;;2.60;;
40599;SDS011;26309;50.924;4.754;2023-08-24T14:12:48;5.93;;;3.20;;
40599;SDS011;26309;50.924;4.754;2023-08-24T14:15:14;6.78;;;2.53;;
40599;SDS011;26309;50.924;4.754;2023-08-24T14:17:40;4.57;;;2.45;;
40599;SDS011;26309;50.924;4.754;2023-08-24T14:20:07;5.93;;;2.38;;
40599;SDS011;26309;50.924;4.754;2023-08-24T14:22:34;5.47;;;2.67;;
40599;SDS011;26309;50.924;4.754;2023-08-24T14:25:00;5.07;;;2.30;;
40599;SDS011;26309;50.924;4.754;2023-08-24T14:27:26;7.68;;;2.13;;
40599;SDS011;26309;50.924;4.754;2023-08-24T14:29:53;4.50;;;2.22;;
40599;SDS011;26309;50.924;4.754;2023-08-24T14:32:24;7.10;;;2.80;;
40599;SDS011;26309;50.924;4.754;2023-08-24T14:34:50;7.13;;;2.20;;
40599;SDS011;26309;50.924;4.754;2023-08-24T14:37:18;4.10;;;2.10;;
40599;SDS011;26309;50.924;4.754;2023-08-24T14:39:44;6.50;;;2.30;;
40599;SDS011;26309;50.924;4.754;2023-08-24T14:42:14;3.88;;;2.00;;
40599;SDS011;26309;50.924;4.754;2023-08-24T14:44:48;3.15;;;2.08;;
40599;SDS011;26309;50.924;4.754;2023-08-24T14:47:28;4.32;;;1.90;;
40599;SDS011;26309;50.924;4.754;2023-08-24T14:50:10;5.13;;;2.03;;